createdAt,value
2017-08-11T04:31:38.450Z,92.80
2017-08-11T04:34:06.699Z,92.70
2017-08-11T04:36:35.078Z,92.60
2017-08-11T04:39:03.371Z,92.60
2017-08-11T04:41:31.631Z,92.50
2017-08-11T04:44:00.011Z,92.40
2017-08-11T04:46:28.385Z,92.40
2017-08-11T04:48:56.675Z,92.40
2017-08-11T04:51:24.930Z,92.50
2017-08-11T04:53:53.219Z,92.50
2017-08-11T04:56:21.885Z,92.50
2017-08-11T04:58:50.187Z,92.50
2017-08-11T05:01:18.475Z,92.50
2017-08-11T05:03:46.991Z,92.70
2017-08-11T05:06:16.143Z,92.40
2017-08-11T05:08:44.590Z,92.30
2017-08-11T05:11:12.898Z,92.30
2017-08-11T05:13:41.178Z,92.30
2017-08-11T05:16:10.370Z,92.30
2017-08-11T05:18:38.731Z,92.30
2017-08-11T05:21:07.254Z,92.30
2017-08-11T05:23:35.612Z,92.20
2017-08-11T05:26:03.886Z,92.00
2017-08-11T05:28:32.166Z,91.80
2017-08-11T05:31:00.540Z,91.30
2017-08-11T05:33:28.919Z,90.70
2017-08-11T05:35:57.167Z,90.60
2017-08-11T05:38:25.578Z,90.60
2017-08-11T05:40:53.861Z,89.00
2017-08-11T05:43:22.367Z,88.60
2017-08-11T05:45:51.382Z,89.80
2017-08-11T05:48:19.669Z,89.80
2017-08-11T05:50:47.998Z,90.20
2017-08-11T05:53:16.694Z,90.00
2017-08-11T05:55:44.947Z,89.80
2017-08-11T05:58:13.231Z,89.20
2017-08-11T06:00:41.483Z,89.30
2017-08-11T06:03:10.041Z,89.00
2017-08-11T06:05:38.372Z,88.30
2017-08-11T06:08:06.734Z,87.00
2017-08-11T06:10:35.010Z,87.50
2017-08-11T06:13:03.391Z,86.90
2017-08-11T06:15:31.667Z,86.60
2017-08-11T06:17:59.985Z,88.80
2017-08-11T06:20:29.038Z,88.50
2017-08-11T06:22:57.332Z,87.90
2017-08-11T06:25:25.598Z,89.10
2017-08-11T06:27:53.971Z,87.90
2017-08-11T15:00:36.831Z,91.70
2017-08-11T15:03:05.900Z,91.70
2017-08-11T15:05:34.162Z,91.70
2017-08-11T15:08:02.556Z,91.80
2017-08-11T15:10:30.819Z,91.90
2017-08-11T15:12:59.194Z,91.60
2017-08-11T15:15:27.492Z,91.00
2017-08-11T15:17:55.846Z,91.00
2017-08-11T15:20:24.106Z,91.10
2017-08-11T15:22:52.391Z,91.20
2017-08-11T15:25:20.787Z,91.40
2017-08-11T15:27:49.085Z,91.40
2017-08-11T15:30:17.438Z,91.20
2017-08-11T15:32:45.818Z,91.20
2017-08-11T15:35:14.098Z,91.40
2017-08-11T15:37:42.386Z,91.50
2017-08-11T15:40:10.754Z,91.60
2017-08-11T15:42:39.051Z,91.90
2017-08-11T15:45:08.699Z,92.20
2017-08-11T15:47:37.019Z,91.90
2017-08-11T15:50:05.287Z,91.90
2017-08-11T15:52:33.663Z,92.00
2017-08-11T15:55:01.922Z,91.40
2017-08-11T15:57:30.322Z,91.60
2017-08-11T15:59:58.578Z,91.90
2017-08-11T16:02:26.890Z,92.20
2017-08-11T16:04:55.154Z,92.10
2017-08-11T16:07:23.535Z,92.10
2017-08-11T16:09:51.791Z,92.20
2017-08-11T16:12:20.087Z,92.10
2017-08-11T16:14:48.367Z,92.30
2017-08-11T16:17:16.630Z,92.50
2017-08-11T16:19:44.928Z,92.40
2017-08-11T16:22:13.267Z,92.70
2017-08-11T16:24:41.562Z,92.90
2017-08-11T16:27:10.279Z,92.90
2017-08-11T16:29:38.630Z,93.00
2017-08-11T16:32:06.894Z,92.90
2017-08-11T16:34:35.282Z,92.90
2017-08-11T16:37:03.562Z,93.00
2017-08-11T16:39:31.939Z,93.00
2017-08-11T16:42:00.223Z,93.20
2017-08-11T16:44:28.594Z,93.20
2017-08-11T16:46:56.871Z,93.50
2017-08-11T16:49:25.257Z,93.10
2017-08-11T16:51:53.526Z,93.10
2017-08-11T16:54:21.859Z,93.30
2017-08-11T16:56:51.032Z,93.10
2017-08-11T16:59:19.362Z,93.20
2017-08-11T17:01:47.763Z,93.00
2017-08-11T17:04:16.144Z,92.90
2017-08-11T17:06:44.399Z,93.10
2017-08-11T17:09:12.687Z,92.90
2017-08-11T17:11:40.955Z,92.80
2017-08-11T17:14:09.260Z,93.10
2017-08-11T17:16:37.622Z,93.00
2017-08-11T17:19:05.980Z,93.40
2017-08-11T17:21:34.278Z,93.50
2017-08-11T17:24:02.673Z,93.20
2017-08-11T17:26:30.932Z,93.40
2017-08-11T17:28:59.221Z,93.70
2017-08-11T17:31:27.478Z,93.70
2017-08-11T17:33:55.771Z,93.30
2017-08-11T17:36:24.062Z,93.30
2017-08-11T17:38:52.414Z,93.30
2017-08-11T17:41:20.806Z,93.00
2017-08-11T17:43:49.083Z,93.20
2017-08-11T17:46:17.450Z,93.10
2017-08-11T17:48:45.730Z,93.20
2017-08-11T17:51:14.019Z,93.30
2017-08-11T17:53:42.387Z,93.30
2017-08-11T17:56:10.774Z,93.00
2017-08-11T17:58:39.043Z,93.00
2017-08-11T18:01:07.351Z,93.20
2017-08-11T18:03:36.419Z,92.80
2017-08-11T18:06:04.707Z,92.80
2017-08-11T18:08:33.071Z,92.80
2017-08-11T18:11:01.468Z,93.00
2017-08-11T18:13:29.730Z,93.00
2017-08-11T18:15:58.019Z,92.90
2017-08-11T18:18:26.374Z,93.20
2017-08-11T18:20:54.986Z,93.40
2017-08-11T18:23:23.254Z,93.20
2017-08-11T18:25:51.547Z,93.10
2017-08-11T18:28:20.575Z,93.50
2017-08-11T18:30:48.867Z,93.50
2017-08-11T18:33:17.167Z,93.70
2017-08-11T18:35:45.562Z,93.80
2017-08-11T18:38:13.807Z,93.80
2017-08-11T18:40:42.210Z,93.70
2017-08-11T18:43:10.515Z,93.80
2017-08-11T18:45:39.570Z,94.10
2017-08-11T18:48:07.884Z,94.10
2017-08-11T18:50:36.923Z,94.30
2017-08-11T18:53:05.260Z,94.20
2017-08-11T18:55:34.327Z,94.30
2017-08-11T18:58:02.694Z,94.30
2017-08-11T19:00:31.002Z,94.50
2017-08-11T19:03:00.079Z,94.60
2017-08-11T19:05:28.378Z,94.60
2017-08-11T19:07:57.444Z,94.70
2017-08-11T19:10:25.747Z,94.70
2017-08-11T19:12:54.824Z,94.60
2017-08-11T19:15:23.196Z,94.50
2017-08-11T19:17:51.469Z,94.60
2017-08-11T19:20:19.864Z,94.60
2017-08-11T19:22:48.903Z,95.00
2017-08-11T19:25:17.222Z,94.60
2017-08-11T19:27:45.525Z,94.70
2017-08-11T19:30:14.599Z,94.80
2017-08-11T19:32:42.879Z,94.80
2017-08-11T19:35:11.207Z,94.70
2017-08-11T19:37:39.508Z,94.90
2017-08-11T19:40:07.773Z,94.90
2017-08-11T19:42:36.085Z,94.90
2017-08-11T19:45:04.355Z,94.90
2017-08-11T19:47:32.745Z,94.90
2017-08-11T19:50:01.028Z,94.80
2017-08-11T19:52:29.388Z,94.80
2017-08-11T19:54:57.702Z,94.90
2017-08-11T19:57:27.187Z,94.60
2017-08-11T19:59:55.664Z,94.60
2017-08-11T20:02:24.676Z,94.80
2017-08-11T20:04:54.654Z,94.80
2017-08-11T20:07:23.017Z,94.80
2017-08-11T20:09:51.281Z,94.80
2017-08-11T20:12:20.259Z,94.90
2017-08-11T20:14:49.288Z,95.00
2017-08-11T20:17:17.691Z,94.90
2017-08-11T20:19:45.988Z,95.20
2017-08-11T20:22:15.019Z,95.00
2017-08-11T20:24:43.315Z,95.00
2017-08-11T20:27:11.623Z,95.00
2017-08-11T20:29:39.905Z,95.10
2017-08-11T20:32:09.024Z,95.30
2017-08-11T20:34:37.366Z,95.00
2017-08-11T20:37:05.643Z,95.10
2017-08-11T20:39:33.934Z,95.10
2017-08-11T20:42:03.007Z,95.20
2017-08-11T20:44:31.303Z,95.20
2017-08-11T20:47:00.484Z,95.20
2017-08-11T20:49:28.871Z,94.90
2017-08-11T20:51:57.235Z,95.00
2017-08-11T20:54:25.616Z,94.80
2017-08-11T20:56:53.889Z,94.80
2017-08-11T20:59:22.380Z,94.90
2017-08-11T21:01:50.661Z,94.80
2017-08-11T21:04:18.966Z,94.80
2017-08-11T21:06:47.241Z,94.90
2017-08-11T21:09:16.303Z,94.70
2017-08-11T21:11:44.671Z,94.70
2017-08-11T21:14:13.066Z,94.60
2017-08-11T21:16:41.324Z,94.70
2017-08-11T21:19:09.615Z,94.80
2017-08-11T21:21:37.918Z,94.90
2017-08-11T21:24:07.193Z,94.80
2017-08-11T21:26:35.465Z,94.90
2017-08-11T21:29:03.767Z,94.50
2017-08-11T21:31:32.043Z,94.60
2017-08-11T21:34:01.126Z,94.60
2017-08-11T21:36:29.379Z,94.60
2017-08-11T21:38:57.670Z,94.60
2017-08-11T21:41:25.927Z,94.50
2017-08-11T21:43:54.224Z,94.60
2017-08-11T21:46:22.587Z,94.50
2017-08-11T21:48:50.967Z,94.70
2017-08-11T21:51:19.238Z,94.50
2017-08-11T21:53:47.535Z,94.40
2017-08-11T21:56:15.915Z,94.50
2017-08-11T21:58:44.270Z,94.50
2017-08-11T22:01:12.650Z,94.60
2017-08-11T22:03:41.032Z,94.50
2017-08-11T22:06:09.411Z,94.50
2017-08-11T22:08:37.686Z,94.60
2017-08-11T22:11:05.974Z,94.60
2017-08-11T22:13:34.574Z,94.50
2017-08-11T22:16:02.875Z,94.30
2017-08-11T22:18:31.203Z,94.40
2017-08-11T22:20:59.479Z,94.30
2017-08-11T22:23:28.090Z,94.40
2017-08-11T22:25:56.427Z,94.60
2017-08-11T22:28:25.631Z,94.60
2017-08-11T22:30:54.023Z,94.60
2017-08-11T22:33:22.279Z,94.50
2017-08-11T22:35:50.575Z,94.50
2017-08-11T22:38:18.846Z,94.50
2017-08-11T22:40:47.135Z,94.30
2017-08-11T22:43:15.438Z,94.40
2017-08-11T22:45:44.831Z,94.40
2017-08-11T22:48:13.182Z,94.30
2017-08-11T22:50:41.479Z,94.60
2017-08-11T22:53:09.739Z,94.30
2017-08-11T22:55:38.123Z,94.40
2017-08-11T22:58:06.723Z,94.40
2017-08-11T23:00:35.182Z,94.40
2017-08-11T23:03:03.459Z,94.50
2017-08-11T23:05:31.752Z,94.50
2017-08-11T23:08:00.035Z,94.50
2017-08-11T23:10:28.334Z,94.40
2017-08-11T23:12:56.662Z,94.20
